createdAt,value
2022-09-16T00:01:57.600Z,11.90
2022-09-16T00:04:24.374Z,11.90
2022-09-16T00:06:51.033Z,11.90
2022-09-16T00:09:17.658Z,11.90
2022-09-16T00:11:44.359Z,11.90
2022-09-16T00:14:11.107Z,11.80
2022-09-16T00:16:37.787Z,11.80
2022-09-16T00:19:04.647Z,11.80
2022-09-16T00:21:32.295Z,11.80
2022-09-16T00:23:59.367Z,11.80
2022-09-16T00:26:26.135Z,11.80
2022-09-16T00:28:52.952Z,11.70
2022-09-16T00:31:19.706Z,11.70
2022-09-16T00:33:46.358Z,11.70
2022-09-16T00:36:18.546Z,11.70
2022-09-16T00:38:45.701Z,11.70
2022-09-16T00:41:16.818Z,11.70
2022-09-16T00:43:59.520Z,11.70
2022-09-16T00:46:44.362Z,11.70
2022-09-16T00:49:18.474Z,11.70
2022-09-16T00:51:47.912Z,11.70
2022-09-16T00:54:16.059Z,11.70
2022-09-16T00:56:46.955Z,11.70
2022-09-16T00:59:26.455Z,11.70
2022-09-16T01:01:55.157Z,11.60
2022-09-16T01:04:35.259Z,11.70
2022-09-16T01:07:02.191Z,11.60
2022-09-16T01:09:30.617Z,11.60
2022-09-16T01:11:57.508Z,11.60
2022-09-16T01:14:44.975Z,11.60
2022-09-16T01:17:23.256Z,11.60
2022-09-16T01:20:31.694Z,11.60
2022-09-16T01:23:16.257Z,11.60
2022-09-16T01:26:07.739Z,11.60
2022-09-16T01:28:56.403Z,11.60
2022-09-16T01:31:50.013Z,11.60
2022-09-16T01:34:40.969Z,11.60
2022-09-16T01:37:20.489Z,11.60
2022-09-16T01:40:14.089Z,11.60
2022-09-16T01:43:02.898Z,11.60
2022-09-16T01:45:47.265Z,11.50
2022-09-16T01:48:29.328Z,11.50
2022-09-16T01:51:21.931Z,11.50
2022-09-16T01:54:03.712Z,11.50
2022-09-16T01:56:43.790Z,11.50
2022-09-16T01:59:13.529Z,11.50
2022-09-16T02:01:47.850Z,11.50
2022-09-16T02:04:31.850Z,11.50
2022-09-16T02:07:02.872Z,11.50
2022-09-16T02:09:34.846Z,11.50
2022-09-16T02:12:05.393Z,11.50
2022-09-16T02:14:42.423Z,11.50
2022-09-16T02:17:16.156Z,11.50
2022-09-16T02:20:15.531Z,11.50
2022-09-16T02:22:51.005Z,11.50
2022-09-16T02:25:19.798Z,11.50
2022-09-16T02:27:49.166Z,11.50
2022-09-16T02:30:19.088Z,11.50
2022-09-16T02:32:56.863Z,11.50
2022-09-16T02:35:27.129Z,11.50
2022-09-16T02:37:59.457Z,11.50
2022-09-16T02:40:34.715Z,11.50
2022-09-16T02:43:02.252Z,11.50
2022-09-16T02:45:47.627Z,11.50
2022-09-16T02:48:42.370Z,11.50
2022-09-16T02:51:41.117Z,11.50
2022-09-16T02:54:23.701Z,11.40
2022-09-16T02:56:50.453Z,11.40
2022-09-16T02:59:17.795Z,11.40
2022-09-16T03:01:46.537Z,11.40
2022-09-16T03:04:17.331Z,11.40
2022-09-16T03:06:44.477Z,11.40
2022-09-16T03:09:13.697Z,11.30
2022-09-16T03:11:58.841Z,11.30
2022-09-16T03:14:36.241Z,11.30
2022-09-16T03:17:08.523Z,11.30
2022-09-16T03:19:47.258Z,11.30
2022-09-16T03:22:50.718Z,11.20
2022-09-16T03:25:44.779Z,11.20
2022-09-16T03:28:16.934Z,11.20
2022-09-16T03:31:08.836Z,11.20
2022-09-16T03:33:49.604Z,11.20
2022-09-16T03:36:23.091Z,11.20
2022-09-16T03:38:52.187Z,11.20
2022-09-16T03:41:19.122Z,11.20
2022-09-16T03:44:03.775Z,11.20
2022-09-16T03:46:31.482Z,11.20
2022-09-16T03:48:59.064Z,11.20
2022-09-16T03:51:26.323Z,11.20
2022-09-16T03:53:54.220Z,11.10
2022-09-16T03:56:23.318Z,11.20
2022-09-16T03:58:50.003Z,11.20
2022-09-16T04:01:16.683Z,11.20
2022-09-16T04:03:43.366Z,11.20
2022-09-16T04:06:10.114Z,11.20
2022-09-16T04:08:37.196Z,11.20
2022-09-16T04:11:05.596Z,11.10
2022-09-16T04:13:36.168Z,11.20
2022-09-16T04:16:04.266Z,11.10
2022-09-16T04:18:32.393Z,11.20
2022-09-16T04:21:00.396Z,11.10
2022-09-16T04:23:28.497Z,11.10
2022-09-16T04:25:56.701Z,11.10
2022-09-16T04:28:23.529Z,11.20
2022-09-16T04:30:50.686Z,11.10
2022-09-16T04:33:17.725Z,11.10
2022-09-16T04:35:44.384Z,11.10
2022-09-16T04:38:11.088Z,11.10
2022-09-16T04:40:39.614Z,11.10
2022-09-16T04:43:06.509Z,11.10
2022-09-16T04:45:33.220Z,11.10
2022-09-16T04:47:59.923Z,11.10
2022-09-16T04:50:26.626Z,11.00
2022-09-16T04:52:53.322Z,11.00
2022-09-16T04:55:22.929Z,11.00
2022-09-16T04:57:50.253Z,11.00
2022-09-16T05:00:16.952Z,11.00
2022-09-16T05:02:46.781Z,11.00
2022-09-16T05:05:13.638Z,11.00
2022-09-16T05:07:40.407Z,11.00
2022-09-16T05:10:07.436Z,10.90
2022-09-16T05:12:34.289Z,10.90
2022-09-16T05:15:00.904Z,10.90
2022-09-16T05:17:49.879Z,10.80
2022-09-16T05:20:18.093Z,10.80
2022-09-16T05:22:44.945Z,10.80
2022-09-16T05:25:11.593Z,10.80
2022-09-16T05:27:38.347Z,10.70
2022-09-16T05:30:05.468Z,10.70
2022-09-16T05:32:32.951Z,10.70
2022-09-16T05:34:59.586Z,10.70
2022-09-16T05:37:26.454Z,10.70
2022-09-16T05:39:53.188Z,10.70
2022-09-16T05:42:19.847Z,10.70
2022-09-16T05:44:46.485Z,10.70
2022-09-16T05:47:13.144Z,10.70
2022-09-16T05:49:39.748Z,10.70
2022-09-16T05:52:06.972Z,10.70
2022-09-16T05:54:34.012Z,10.60
2022-09-16T05:57:06.022Z,10.60
2022-09-16T05:59:33.609Z,10.60
2022-09-16T06:02:00.394Z,10.60
2022-09-16T06:04:27.106Z,10.60
2022-09-16T06:06:53.779Z,10.60
2022-09-16T06:09:23.065Z,10.60
2022-09-16T06:11:54.464Z,10.60
2022-09-16T06:14:23.580Z,10.60
2022-09-16T06:16:50.245Z,10.60
2022-09-16T06:19:18.697Z,10.60
2022-09-16T06:21:46.561Z,10.60
2022-09-16T06:24:15.273Z,10.60
2022-09-16T06:26:43.970Z,10.60
2022-09-16T06:29:11.511Z,10.60
2022-09-16T06:31:38.885Z,10.60
2022-09-16T06:34:07.069Z,10.60
2022-09-16T06:36:42.811Z,10.60
2022-09-16T06:39:13.779Z,10.60
2022-09-16T06:41:43.601Z,10.60
2022-09-16T06:44:10.385Z,10.70
2022-09-16T06:46:37.276Z,10.70
2022-09-16T06:49:06.078Z,10.70
2022-09-16T06:51:35.819Z,10.80
2022-09-16T06:54:05.439Z,10.80
2022-09-16T06:56:35.898Z,10.90
2022-09-16T06:59:03.505Z,10.90
2022-09-16T07:01:31.656Z,10.90
2022-09-16T07:04:01.412Z,11.00
2022-09-16T07:09:16.977Z,11.10
2022-09-16T07:11:43.601Z,11.10
2022-09-16T07:14:10.371Z,11.20
2022-09-16T07:16:37.232Z,11.20
2022-09-16T07:19:04.524Z,11.30
2022-09-16T07:21:31.592Z,11.30
2022-09-16T07:24:00.390Z,11.40
2022-09-16T07:26:32.407Z,11.40
2022-09-16T07:28:59.879Z,11.50
2022-09-16T07:31:28.544Z,11.50
2022-09-16T07:34:01.331Z,11.60
2022-09-16T07:36:33.628Z,11.60
2022-09-16T07:39:00.407Z,11.70
2022-09-16T07:41:34.210Z,11.70
2022-09-16T07:44:02.041Z,11.80
2022-09-16T07:46:30.957Z,11.80
2022-09-16T07:48:59.380Z,11.90
2022-09-16T07:51:27.854Z,12.00
2022-09-16T07:53:56.800Z,12.00
2022-09-16T07:56:25.847Z,12.10
2022-09-16T07:58:54.341Z,12.10
2022-09-16T08:01:21.989Z,12.20
2022-09-16T08:03:48.880Z,12.20
2022-09-16T08:06:19.055Z,12.20
2022-09-16T08:08:46.479Z,12.20
2022-09-16T08:11:14.434Z,12.30
2022-09-16T08:13:42.630Z,12.30
2022-09-16T08:16:17.741Z,12.30
2022-09-16T08:18:46.829Z,12.30
2022-09-16T08:21:22.076Z,12.30
2022-09-16T08:23:49.359Z,12.40
2022-09-16T08:26:18.120Z,12.30
2022-09-16T08:29:07.437Z,12.40
2022-09-16T08:31:33.346Z,12.40
2022-09-16T08:34:00.171Z,12.50
2022-09-16T08:36:29.579Z,12.50
2022-09-16T08:38:56.916Z,12.60
2022-09-16T08:41:32.122Z,12.70
2022-09-16T08:44:27.483Z,12.70
2022-09-16T08:47:03.837Z,12.70
2022-09-16T08:49:46.291Z,12.80
2022-09-16T08:52:26.780Z,12.80
2022-09-16T08:55:04.967Z,12.80
2022-09-16T08:57:35.554Z,12.90
2022-09-16T09:00:12.561Z,12.90
2022-09-16T09:02:48.224Z,12.90
2022-09-16T09:05:27.249Z,13.00
2022-09-16T09:08:03.381Z,13.10
2022-09-16T09:10:50.819Z,13.20
2022-09-16T09:13:37.343Z,13.30
2022-09-16T09:16:10.751Z,13.40
2022-09-16T09:19:16.848Z,13.40
2022-09-16T09:22:08.597Z,13.50
2022-09-16T09:24:44.091Z,13.50
2022-09-16T09:27:17.746Z,13.60
2022-09-16T09:29:51.536Z,13.60
2022-09-16T09:32:49.447Z,13.70
2022-09-16T09:35:50.417Z,13.70
2022-09-16T09:38:38.743Z,13.70
2022-09-16T09:41:30.228Z,13.70
2022-09-16T09:44:17.850Z,13.70
2022-09-16T09:46:52.454Z,13.70
2022-09-16T09:49:46.595Z,13.70
2022-09-16T09:52:30.987Z,13.80
2022-09-16T09:55:06.358Z,13.80
2022-09-16T09:57:39.784Z,13.90
2022-09-16T10:00:17.395Z,14.00
2022-09-16T10:02:49.539Z,14.10
2022-09-16T10:05:26.182Z,14.20
2022-09-16T10:08:02.669Z,14.20
2022-09-16T10:10:33.563Z,14.30
2022-09-16T10:13:13.332Z,14.40
2022-09-16T10:15:41.376Z,14.60
2022-09-16T10:18:24.658Z,14.80
2022-09-16T10:21:16.557Z,14.80
2022-09-16T10:23:57.523Z,14.80
2022-09-16T10:26:28.525Z,14.90
2022-09-16T10:28:56.481Z,14.90
2022-09-16T10:31:28.103Z,14.90
2022-09-16T10:33:59.550Z,15.00
2022-09-16T10:36:32.631Z,15.00
2022-09-16T10:39:04.617Z,15.00
2022-09-16T10:41:46.478Z,15.00
2022-09-16T10:44:32.506Z,15.10
2022-09-16T10:47:03.010Z,15.20
2022-09-16T10:49:45.110Z,15.30
2022-09-16T10:52:20.576Z,15.40
2022-09-16T10:54:47.422Z,15.50
2022-09-16T10:57:24.090Z,15.50
2022-09-16T11:00:21.549Z,15.50
2022-09-16T11:03:06.414Z,15.50
2022-09-16T11:05:50.644Z,15.50
2022-09-16T11:08:55.396Z,15.40
2022-09-16T11:11:43.393Z,15.40
2022-09-16T11:14:28.840Z,15.40
2022-09-16T11:17:20.524Z,15.40
2022-09-16T11:19:50.034Z,15.40
2022-09-16T11:22:19.968Z,15.40
2022-09-16T11:24:51.434Z,15.60
2022-09-16T11:27:21.212Z,15.80
2022-09-16T11:30:03.590Z,16.10
2022-09-16T11:32:55.610Z,16.20
2022-09-16T11:35:23.469Z,16.50
2022-09-16T11:38:01.129Z,16.60
2022-09-16T11:40:40.574Z,16.80
2022-09-16T11:43:21.330Z,17.10
2022-09-16T11:46:10.911Z,17.20
2022-09-16T11:49:15.572Z,17.40
2022-09-16T11:52:02.884Z,17.70
2022-09-16T11:54:53.975Z,17.70
2022-09-16T11:57:31.023Z,17.60
2022-09-16T12:00:13.155Z,17.50
2022-09-16T12:03:01.100Z,17.40
2022-09-16T12:05:30.918Z,17.30
2022-09-16T12:08:25.409Z,17.10
2022-09-16T12:11:04.209Z,16.90
2022-09-16T12:13:44.796Z,16.70
2022-09-16T12:16:20.008Z,16.60
2022-09-16T12:18:53.376Z,16.50
2022-09-16T12:21:28.875Z,16.50
2022-09-16T12:24:18.718Z,16.40
2022-09-16T12:26:51.834Z,16.50
2022-09-16T12:29:26.715Z,16.50
2022-09-16T12:32:09.769Z,16.50
2022-09-16T12:34:41.940Z,16.60
2022-09-16T12:37:27.678Z,16.60
2022-09-16T12:39:54.510Z,16.60
2022-09-16T12:42:27.093Z,16.60
2022-09-16T12:45:38.268Z,16.50
2022-09-16T12:48:28.265Z,16.60
2022-09-16T12:51:22.768Z,16.50
2022-09-16T12:54:09.727Z,16.50
2022-09-16T12:56:48.457Z,16.50
2022-09-16T12:59:30.025Z,16.50
2022-09-16T13:02:17.208Z,16.50
2022-09-16T13:04:48.205Z,16.60
2022-09-16T13:07:24.201Z,16.60
2022-09-16T13:10:04.710Z,16.50
2022-09-16T13:12:40.927Z,16.40
2022-09-16T13:15:33.434Z,16.30
2022-09-16T13:18:18.130Z,16.10
2022-09-16T13:20:55.903Z,16.00
2022-09-16T13:23:40.304Z,15.90
2022-09-16T13:26:09.436Z,15.90
2022-09-16T13:28:41.658Z,15.90
2022-09-16T13:31:11.702Z,16.00
2022-09-16T13:33:49.669Z,16.10
2022-09-16T13:36:30.562Z,16.20
2022-09-16T13:39:02.485Z,16.30
2022-09-16T13:41:34.223Z,16.40
2022-09-16T13:44:03.015Z,16.40
2022-09-16T13:46:34.412Z,16.50
2022-09-16T13:49:11.097Z,16.40
2022-09-16T13:51:46.611Z,16.20
2022-09-16T13:54:27.939Z,16.20
2022-09-16T13:57:03.729Z,16.10
2022-09-16T13:59:52.927Z,16.20
2022-09-16T14:02:33.017Z,16.20
2022-09-16T14:05:18.734Z,16.10
2022-09-16T14:07:55.568Z,16.00
2022-09-16T14:10:30.930Z,16.10
2022-09-16T14:13:07.421Z,16.00
2022-09-16T14:15:44.473Z,15.90
2022-09-16T14:18:15.534Z,15.80
2022-09-16T14:21:18.733Z,15.70
2022-09-16T14:23:45.771Z,15.60
2022-09-16T14:26:14.754Z,15.60
2022-09-16T14:28:41.472Z,15.40
2022-09-16T14:31:14.704Z,15.40
2022-09-16T14:33:58.833Z,15.30
2022-09-16T14:36:35.211Z,15.30
2022-09-16T14:39:12.301Z,15.30
2022-09-16T14:41:43.243Z,15.20
2022-09-16T14:44:12.775Z,15.20
2022-09-16T14:46:51.616Z,15.10
2022-09-16T14:49:19.684Z,15.10
2022-09-16T14:51:52.070Z,15.00
2022-09-16T14:54:21.966Z,15.00
2022-09-16T14:57:00.884Z,15.00
2022-09-16T14:59:33.451Z,15.00
2022-09-16T15:02:13.748Z,15.00
2022-09-16T15:04:44.054Z,15.10
2022-09-16T15:07:18.185Z,15.30
2022-09-16T15:09:57.451Z,15.40
2022-09-16T15:12:30.698Z,15.50
2022-09-16T15:14:58.009Z,15.60
2022-09-16T15:17:28.424Z,15.70
2022-09-16T15:19:58.871Z,15.60
2022-09-16T15:22:26.864Z,15.60
2022-09-16T15:24:58.342Z,15.60
2022-09-16T15:27:27.759Z,15.50
2022-09-16T15:29:59.260Z,15.50
2022-09-16T15:32:31.741Z,15.40
2022-09-16T15:35:34.164Z,15.20
2022-09-16T15:38:11.078Z,15.20
2022-09-16T15:40:38.377Z,15.30
2022-09-16T15:43:11.118Z,15.20
2022-09-16T15:45:39.101Z,15.30
2022-09-16T15:48:16.119Z,15.30
2022-09-16T15:50:50.647Z,15.40
2022-09-16T15:53:22.657Z,15.40
2022-09-16T15:55:54.490Z,15.40
2022-09-16T15:58:39.894Z,15.40
2022-09-16T16:01:19.169Z,15.40
2022-09-16T16:03:45.934Z,15.30
2022-09-16T16:06:12.943Z,15.30
2022-09-16T16:08:48.873Z,15.20
2022-09-16T16:11:20.618Z,15.20
2022-09-16T16:13:49.651Z,15.20
2022-09-16T16:16:18.124Z,15.30
2022-09-16T16:18:46.175Z,15.40
2022-09-16T16:21:16.047Z,15.40
2022-09-16T16:23:43.557Z,15.50
2022-09-16T16:26:11.441Z,15.50
2022-09-16T16:28:38.627Z,15.60
2022-09-16T16:31:16.648Z,15.60
2022-09-16T16:33:47.841Z,15.60
2022-09-16T16:36:16.348Z,15.60
2022-09-16T16:38:43.697Z,15.60
2022-09-16T16:41:12.157Z,15.60
2022-09-16T16:43:39.603Z,15.60
2022-09-16T16:46:06.369Z,15.50
2022-09-16T16:48:33.103Z,15.50
2022-09-16T16:51:03.704Z,15.40
2022-09-16T16:53:31.382Z,15.40
2022-09-16T16:56:14.727Z,15.40
2022-09-16T16:58:43.142Z,15.40
2022-09-16T17:01:18.014Z,15.40
2022-09-16T17:03:46.330Z,15.40
2022-09-16T17:06:13.298Z,15.40
2022-09-16T17:08:40.086Z,15.40
2022-09-16T17:11:11.300Z,15.40
2022-09-16T17:13:40.600Z,15.30
2022-09-16T17:16:08.646Z,15.20
2022-09-16T17:18:36.971Z,15.10
2022-09-16T17:21:09.103Z,15.00
2022-09-16T17:23:36.699Z,14.90
2022-09-16T17:26:03.932Z,14.80
2022-09-16T17:28:30.989Z,14.70
2022-09-16T17:30:57.987Z,14.70
2022-09-16T17:33:24.711Z,14.60
2022-09-16T17:36:02.953Z,14.60
2022-09-16T17:38:30.150Z,14.50
2022-09-16T17:41:11.839Z,14.40
2022-09-16T17:43:39.876Z,14.30
2022-09-16T17:46:11.689Z,14.10
2022-09-16T17:48:38.831Z,14.00
2022-09-16T17:51:06.058Z,14.00
2022-09-16T17:53:33.744Z,13.90
2022-09-16T17:56:08.949Z,13.80
2022-09-16T17:58:37.591Z,13.80
2022-09-16T18:01:16.827Z,13.70
2022-09-16T18:03:45.456Z,13.70
2022-09-16T18:06:16.255Z,13.60
2022-09-16T18:08:44.025Z,13.60
2022-09-16T18:11:13.024Z,13.50
2022-09-16T18:13:40.909Z,13.50
2022-09-16T18:16:09.522Z,13.40
2022-09-16T18:18:37.542Z,13.40
2022-09-16T18:21:06.215Z,13.30
2022-09-16T18:23:33.371Z,13.20
2022-09-16T18:26:08.954Z,13.10
2022-09-16T18:29:08.190Z,13.10
2022-09-16T18:31:30.604Z,13.00
2022-09-16T18:33:57.387Z,13.00
2022-09-16T18:36:25.902Z,12.90
2022-09-16T18:38:54.161Z,12.80
2022-09-16T18:41:23.647Z,12.80
2022-09-16T18:43:59.038Z,12.70
2022-09-16T18:46:34.246Z,12.70
2022-09-16T18:49:01.677Z,12.60
2022-09-16T18:51:31.125Z,12.60
2022-09-16T18:54:00.761Z,12.50
2022-09-16T18:56:29.339Z,12.40
2022-09-16T18:59:20.464Z,12.40
2022-09-16T19:01:48.890Z,12.40
2022-09-16T19:04:18.274Z,12.30
2022-09-16T19:06:47.566Z,12.30
2022-09-16T19:09:16.474Z,12.30
2022-09-16T19:11:43.449Z,12.30
2022-09-16T19:14:13.883Z,12.20
2022-09-16T19:16:42.890Z,12.20
2022-09-16T19:19:11.454Z,12.10
2022-09-16T19:21:39.099Z,12.10
2022-09-16T19:24:12.398Z,12.10
2022-09-16T19:26:39.437Z,12.00
2022-09-16T19:29:07.628Z,12.00
2022-09-16T19:31:36.170Z,12.00
2022-09-16T19:34:03.435Z,11.90
2022-09-16T19:36:31.677Z,11.90
2022-09-16T19:38:59.565Z,11.80
2022-09-16T19:41:31.457Z,11.80
2022-09-16T19:44:00.301Z,11.80
2022-09-16T19:46:28.479Z,11.80
2022-09-16T19:48:56.421Z,11.70
2022-09-16T19:51:24.198Z,11.70
2022-09-16T19:53:52.667Z,11.70
2022-09-16T19:56:24.651Z,11.60
2022-09-16T19:58:52.890Z,11.60
2022-09-16T20:01:25.385Z,11.60
2022-09-16T20:03:52.918Z,11.60
2022-09-16T20:06:22.217Z,11.60
2022-09-16T20:08:53.399Z,11.50
2022-09-16T20:11:22.055Z,11.60
2022-09-16T20:13:50.294Z,11.50
2022-09-16T20:16:18.306Z,11.50
2022-09-16T20:18:45.827Z,11.50
2022-09-16T20:21:16.016Z,11.50
2022-09-16T20:23:44.625Z,11.50
2022-09-16T20:26:14.858Z,11.50
2022-09-16T20:28:43.156Z,11.50
2022-09-16T20:31:12.298Z,11.50
2022-09-16T20:33:40.240Z,11.50
2022-09-16T20:36:10.504Z,11.50
2022-09-16T20:38:38.805Z,11.50
2022-09-16T20:41:14.019Z,11.50
2022-09-16T20:43:41.652Z,11.50
2022-09-16T20:46:15.476Z,11.50
2022-09-16T20:48:42.819Z,11.50
2022-09-16T20:51:15.041Z,11.50
2022-09-16T20:53:42.708Z,11.50
2022-09-16T20:56:14.519Z,11.40
2022-09-16T20:58:42.723Z,11.40
2022-09-16T21:01:14.841Z,11.40
2022-09-16T21:03:42.889Z,11.40
2022-09-16T21:06:11.927Z,11.40
2022-09-16T21:08:39.746Z,11.40
2022-09-16T21:11:12.478Z,11.30
2022-09-16T21:13:41.296Z,11.30
2022-09-16T21:16:10.824Z,11.30
2022-09-16T21:18:37.937Z,11.30
2022-09-16T21:21:08.169Z,11.20
2022-09-16T21:23:35.452Z,11.20
2022-09-16T21:26:07.243Z,11.30
2022-09-16T21:28:34.384Z,11.30
2022-09-16T21:31:06.817Z,11.30
2022-09-16T21:33:35.948Z,11.30
2022-09-16T21:36:07.337Z,11.30
2022-09-16T21:38:34.028Z,11.30
2022-09-16T21:41:06.295Z,11.20
2022-09-16T21:43:37.682Z,11.20
2022-09-16T21:46:04.866Z,11.20
2022-09-16T21:48:33.071Z,11.20
2022-09-16T21:51:08.154Z,11.10
2022-09-16T21:53:37.270Z,11.10
2022-09-16T21:56:06.093Z,11.10
2022-09-16T21:58:33.735Z,11.10
2022-09-16T22:01:16.827Z,11.10
2022-09-16T22:03:45.297Z,11.10
2022-09-16T22:06:14.828Z,11.00
2022-09-16T22:08:49.215Z,11.10
2022-09-16T22:11:18.391Z,11.10
2022-09-16T22:13:45.360Z,11.00
2022-09-16T22:16:27.327Z,11.00
2022-09-16T22:18:59.353Z,11.00
2022-09-16T22:21:28.211Z,11.00
2022-09-16T22:23:55.390Z,11.00
2022-09-16T22:26:23.786Z,11.00
2022-09-16T22:28:51.580Z,11.00
2022-09-16T22:31:23.865Z,11.00
2022-09-16T22:33:52.108Z,11.00
2022-09-16T22:36:21.663Z,10.90
2022-09-16T22:38:56.434Z,10.90
2022-09-16T22:41:24.478Z,10.90
2022-09-16T22:43:52.849Z,10.90
2022-09-16T22:46:25.723Z,10.90
2022-09-16T22:48:55.113Z,10.90
2022-09-16T22:51:22.529Z,10.90
2022-09-16T22:53:49.594Z,10.90
2022-09-16T22:56:21.905Z,10.90
2022-09-16T22:58:53.680Z,10.90
2022-09-16T23:01:23.415Z,10.90
2022-09-16T23:03:54.363Z,10.90
2022-09-16T23:06:21.743Z,10.90
2022-09-16T23:08:48.625Z,10.90
2022-09-16T23:11:20.723Z,10.90
2022-09-16T23:13:50.276Z,10.90
2022-09-16T23:16:21.113Z,10.90
2022-09-16T23:18:48.833Z,10.80
2022-09-16T23:21:18.165Z,10.80
2022-09-16T23:23:47.561Z,10.90
2022-09-16T23:26:20.494Z,10.90
2022-09-16T23:28:52.380Z,10.80
2022-09-16T23:31:22.162Z,10.80
2022-09-16T23:33:48.888Z,10.80
2022-09-16T23:36:17.429Z,10.80
2022-09-16T23:38:45.880Z,10.80
2022-09-16T23:41:16.221Z,10.80
2022-09-16T23:43:43.629Z,10.70
2022-09-16T23:46:12.043Z,10.70
2022-09-16T23:48:39.024Z,10.70
2022-09-16T23:51:07.369Z,10.70
2022-09-16T23:53:35.852Z,10.70
2022-09-16T23:56:07.236Z,10.70
2022-09-16T23:58:34.494Z,10.60
